Time;durP1;ratioP1;P1;durP2;ratioP2;P2;SDS_P1;SDS_P2;PMS_P1;PMS_P2;Temp;Humidity;BMP_temperature;BMP_pressure;BME280_temperature;BME280_humidity;BME280_pressure;Samples;Min_cycle;Max_cycle;Signal;HPM_P1;HPM_P2
2023/05/29 00:01:08;;;;;;;8.75;3.47;;;;;;;17.28;87.83;99376.13;3133711;28;20102;-70
2023/05/29 00:02:44;;;;;;;7.85;3.08;;;;;;;17.27;87.84;99373.59;3136697;28;20509;-70
2023/05/29 00:04:16;;;;;;;7.95;3.42;;;;;;;17.26;87.77;99374.56;3141348;28;20048;-70
2023/05/29 00:05:49;;;;;;;6.82;3.67;;;;;;;17.27;87.97;99368.34;3143073;28;20052;-70
2023/05/29 00:07:19;;;;;;;9.38;3.05;;;;;;;17.24;87.72;99371.22;3140799;28;20071;-69
2023/05/29 00:08:51;;;;;;;9.82;3.60;;;;;;;17.22;87.78;99368.72;3141032;28;20049;-70
2023/05/29 00:10:23;;;;;;;8.57;3.30;;;;;;;17.20;87.95;99370.63;3145758;28;20143;-70
2023/05/29 00:11:55;;;;;;;7.93;3.22;;;;;;;17.20;87.94;99375.06;3149601;28;20505;-70
2023/05/29 00:13:27;;;;;;;13.93;3.10;;;;;;;17.21;87.97;99372.28;3144232;28;20056;-70
2023/05/29 00:14:59;;;;;;;8.23;3.40;;;;;;;17.24;87.96;99372.09;3151031;28;20052;-70
2023/05/29 00:16:34;;;;;;;9.95;3.83;;;;;;;17.28;87.82;99375.31;3131521;28;20508;-70
2023/05/29 00:18:06;;;;;;;6.85;3.45;;;;;;;17.20;87.81;99360.09;3141777;28;20079;-70
2023/05/29 00:19:38;;;;;;;10.65;3.40;;;;;;;17.34;87.82;99368.72;3153497;28;20054;-69
2023/05/29 00:21:10;;;;;;;5.47;3.47;;;;;;;17.36;87.58;99375.53;3143072;28;20422;-70
2023/05/29 00:22:41;;;;;;;11.73;4.00;;;;;;;17.38;87.35;99376.22;3141004;28;20052;-70
2023/05/29 00:24:13;;;;;;;7.35;3.88;;;;;;;17.41;87.45;99378.59;3143130;28;20060;-70
2023/05/29 00:25:45;;;;;;;7.43;3.20;;;;;;;17.44;87.50;99375.72;3157124;28;20382;-70
2023/05/29 00:27:17;;;;;;;6.95;2.92;;;;;;;17.46;87.50;99370.34;3147823;28;20060;-69
2023/05/29 00:28:49;;;;;;;5.22;3.33;;;;;;;17.49;87.58;99378.00;3145941;28;20048;-69
2023/05/29 00:30:21;;;;;;;8.00;4.10;;;;;;;17.48;87.48;99371.91;3143728;28;20044;-70
2023/05/29 00:31:54;;;;;;;7.22;3.55;;;;;;;17.51;87.10;99368.19;3141274;28;20057;-70
2023/05/29 00:33:25;;;;;;;8.93;3.88;;;;;;;17.47;87.31;99369.38;3153123;28;20060;-71
2023/05/29 00:34:57;;;;;;;6.35;3.58;;;;;;;17.45;87.25;99361.63;3152160;28;20563;-72
2023/05/29 00:36:29;;;;;;;5.97;4.10;;;;;;;17.42;86.99;99364.50;3151540;28;20052;-71
2023/05/29 00:38:00;;;;;;;8.38;3.88;;;;;;;17.39;87.27;99354.22;3152946;28;20076;-71
2023/05/29 00:39:32;;;;;;;8.48;4.28;;;;;;;17.36;87.36;99362.38;3146079;28;20048;-71
2023/05/29 00:41:03;;;;;;;13.68;4.28;;;;;;;17.33;87.49;99365.22;3145691;28;20557;-71
2023/05/29 00:42:34;;;;;;;6.40;3.65;;;;;;;17.31;87.56;99369.78;3145665;28;20059;-70
2023/05/29 00:44:06;;;;;;;10.48;4.43;;;;;;;17.29;87.80;99371.69;3145886;28;20813;-70
2023/05/29 00:45:38;;;;;;;8.48;3.97;;;;;;;17.31;87.62;99372.44;3143467;28;20084;-69
2023/05/29 00:47:11;;;;;;;9.75;4.53;;;;;;;17.33;87.73;99362.59;3145519;28;20157;-70
2023/05/29 00:48:44;;;;;;;7.85;3.80;;;;;;;17.29;87.67;99358.53;3141902;28;20135;-70
2023/05/29 00:50:16;;;;;;;11.57;4.10;;;;;;;17.32;87.79;99363.56;3157618;28;20048;-70
2023/05/29 00:51:48;;;;;;;10.98;4.28;;;;;;;17.33;87.88;99359.97;3146520;28;20052;-70
2023/05/29 00:53:20;;;;;;;7.90;4.37;;;;;;;17.32;87.81;99362.72;3145811;28;20089;-69
2023/05/29 00:54:51;;;;;;;7.22;4.00;;;;;;;17.33;87.93;99354.69;3148572;28;20758;-70
2023/05/29 00:56:24;;;;;;;11.65;4.50;;;;;;;17.33;87.83;99356.50;3145562;28;20048;-69
2023/05/29 00:57:56;;;;;;;6.85;3.42;;;;;;;17.31;87.76;99351.38;3145964;28;20410;-70
2023/05/29 00:59:32;;;;;;;7.45;4.25;;;;;;;17.22;88.10;99331.06;3145511;28;20053;-70
2023/05/29 01:01:04;;;;;;;6.82;3.67;;;;;;;17.33;87.99;99346.78;3138554;28;20041;-69
2023/05/29 01:02:38;;;;;;;9.88;4.38;;;;;;;17.38;88.06;99357.81;3147998;28;20130;-68
2023/05/29 01:04:13;;;;;;;8.73;3.90;;;;;;;17.40;87.98;99358.53;3158552;28;20509;-70
2023/05/29 01:05:43;;;;;;;6.55;3.97;;;;;;;17.40;88.08;99352.44;3152014;28;20146;-70
2023/05/29 01:07:15;;;;;;;9.05;3.92;;;;;;;17.41;87.82;99352.28;3144813;28;20506;-70
2023/05/29 01:08:47;;;;;;;9.30;3.90;;;;;;;17.43;87.79;99352.19;3145286;28;20048;-71
2023/05/29 01:10:18;;;;;;;7.72;3.42;;;;;;;17.42;87.75;99347.84;3144238;28;20056;-71
2023/05/29 01:11:58;;;;;;;7.28;4.20;;;;;;;17.46;87.68;99352.75;3147952;28;20052;-71
2023/05/29 01:13:35;;;;;;;7.78;3.78;;;;;;;17.46;87.59;99349.31;3152751;28;20052;-70
2023/05/29 01:15:19;;;;;;;6.40;3.20;;;;;;;17.45;87.27;99340.56;3148230;28;20058;-69
2023/05/29 01:16:56;;;;;;;6.57;3.25;;;;;;;17.46;87.53;99351.94;3145698;28;20067;-70
2023/05/29 01:18:41;;;;;;;9.75;4.10;;;;;;;17.45;87.25;99347.59;3149305;28;20048;-70
2023/05/29 01:20:27;;;;;;;6.68;3.70;;;;;;;17.45;87.20;99351.09;3152764;28;20441;-69
2023/05/29 01:22:09;;;;;;;9.15;3.75;;;;;;;17.48;87.42;99352.63;3145035;28;20464;-69
2023/05/29 01:23:54;;;;;;;7.38;3.50;;;;;;;17.46;87.08;99351.94;3145367;28;20079;-69
2023/05/29 01:25:42;;;;;;;9.65;3.63;;;;;;;17.48;87.06;99352.63;3145525;28;20144;-69
2023/05/29 01:27:18;;;;;;;7.78;3.00;;;;;;;17.47;87.00;99351.78;3154599;28;20501;-69
2023/05/29 01:28:52;;;;;;;7.70;3.22;;;;;;;17.46;86.89;99349.31;3157683;28;20071;-69
2023/05/29 01:30:25;;;;;;;6.78;3.08;;;;;;;17.48;86.74;99350.00;3152271;28;20044;-68
2023/05/29 01:31:58;;;;;;;6.93;2.90;;;;;;;17.46;86.58;99351.94;3140985;28;20059;-68
2023/05/29 01:33:28;;;;;;;6.20;2.70;;;;;;;17.43;86.72;99350.38;3152923;28;20592;-68
2023/05/29 01:35:00;;;;;;;8.23;2.90;;;;;;;17.43;86.54;99342.47;3151069;28;20131;-68
2023/05/29 01:36:32;;;;;;;5.28;3.10;;;;;;;17.43;86.48;99342.47;3150968;28;20543;-68
2023/05/29 01:38:04;;;;;;;4.88;3.10;;;;;;;17.43;86.29;99350.38;3153106;28;20044;-67
2023/05/29 01:39:36;;;;;;;7.90;2.65;;;;;;;17.43;86.20;99345.13;3158198;28;20418;-68
2023/05/29 01:41:07;;;;;;;3.70;2.47;;;;;;;17.42;86.05;99340.81;3153598;28;21125;-68
2023/05/29 01:42:41;;;;;;;4.88;2.95;;;;;;;17.46;85.76;99347.50;3144810;28;20297;-68
2023/05/29 01:44:13;;;;;;;7.03;2.97;;;;;;;17.45;85.72;99348.47;3144929;28;20044;-68
2023/05/29 01:45:46;;;;;;;6.82;2.75;;;;;;;17.44;85.79;99349.41;3142062;28;20049;-68
2023/05/29 01:47:18;;;;;;;7.27;3.40;;;;;;;17.43;85.62;99347.75;3145721;28;20074;-68
2023/05/29 01:48:50;;;;;;;6.78;2.70;;;;;;;17.46;85.75;99344.88;3149350;28;20052;-68
2023/05/29 01:50:24;;;;;;;5.00;2.80;;;;;;;17.41;85.47;99327.78;3142567;28;20888;-68
2023/05/29 01:51:56;;;;;;;6.65;2.80;;;;;;;17.51;85.26;99352.41;3145925;28;20051;-68
2023/05/29 01:53:27;;;;;;;7.03;2.40;;;;;;;17.51;85.32;99350.59;3144830;28;20056;-68
2023/05/29 01:54:59;;;;;;;6.75;3.03;;;;;;;17.53;84.95;99345.19;3147725;28;20060;-68
2023/05/29 01:56:30;;;;;;;5.78;2.88;;;;;;;17.50;85.01;99337.56;3144741;28;20056;-68
2023/05/29 01:58:06;;;;;;;4.80;2.55;;;;;;;17.56;84.76;99336.22;3144299;28;20049;-68
2023/05/29 01:59:39;;;;;;;6.35;2.60;;;;;;;17.54;84.81;99346.03;3153886;28;20056;-68
2023/05/29 02:01:11;;;;;;;4.55;2.60;;;;;;;17.55;84.61;99343.28;3140495;28;20052;-68
2023/05/29 02:02:43;;;;;;;10.52;3.72;;;;;;;17.55;84.73;99347.72;3140542;28;20162;-68
2023/05/29 02:04:15;;;;;;;5.55;2.65;;;;;;;17.57;84.44;99351.03;3144670;28;20450;-68
2023/05/29 02:05:46;;;;;;;10.32;2.63;;;;;;;17.55;84.40;99352.97;3151484;28;20048;-68
2023/05/29 02:07:18;;;;;;;5.78;3.00;;;;;;;17.56;84.01;99352.84;3153056;28;20126;-67
2023/05/29 02:08:50;;;;;;;6.38;2.88;;;;;;;17.54;84.06;99351.28;3157443;28;20058;-68
2023/05/29 02:10:22;;;;;;;6.40;2.78;;;;;;;17.55;83.98;99359.09;3146949;28;20059;-68
2023/05/29 02:11:54;;;;;;;3.85;2.20;;;;;;;17.57;83.89;99356.31;3144664;28;20056;-68
2023/05/29 02:13:26;;;;;;;5.88;2.50;;;;;;;17.59;83.84;99359.66;3148072;28;20059;-68
2023/05/29 02:14:58;;;;;;;7.68;3.22;;;;;;;17.60;83.65;99361.31;3157556;28;20109;-69
2023/05/29 02:16:33;;;;;;;4.35;2.65;;;;;;;17.60;83.59;99356.06;3137319;28;20466;-68
2023/05/29 02:18:20;;;;;;;8.63;2.90;;;;;;;17.59;83.24;99360.50;3144681;28;20048;-68
2023/05/29 02:19:52;;;;;;;5.20;2.78;;;;;;;17.57;83.55;99364.22;3145228;28;20048;-68
2023/05/29 02:21:23;;;;;;;6.38;2.90;;;;;;;17.60;83.59;99361.31;3153803;28;20045;-68
2023/05/29 02:22:54;;;;;;;9.10;3.67;;;;;;;17.61;83.24;99363.00;3157122;28;20071;-68
2023/05/29 02:24:26;;;;;;;7.18;3.17;;;;;;;17.60;83.25;99359.56;3157253;28;20643;-68
2023/05/29 02:25:58;;;;;;;4.85;2.67;;;;;;;17.59;83.12;99359.66;3157370;28;20055;-68
2023/05/29 02:27:30;;;;;;;6.22;2.65;;;;;;;17.58;82.96;99358.00;3145071;28;20056;-68
2023/05/29 02:29:05;;;;;;;4.80;2.67;;;;;;;17.58;82.93;99352.72;3144639;28;20090;-68
2023/05/29 02:30:37;;;;;;;5.68;2.70;;;;;;;17.55;82.92;99359.09;3140178;28;20445;-68
2023/05/29 02:32:09;;;;;;;6.25;2.72;;;;;;;17.54;82.82;99357.41;3142428;28;20056;-68
2023/05/29 02:33:40;;;;;;;6.50;2.47;;;;;;;17.52;82.69;99354.91;3145028;28;20453;-67
2023/05/29 02:35:13;;;;;;;8.88;2.75;;;;;;;17.55;82.74;99358.25;3144124;28;20102;-67
2023/05/29 02:36:45;;;;;;;6.75;2.42;;;;;;;17.55;82.63;99360.88;3147904;28;20055;-69
2023/05/29 02:38:17;;;;;;;9.05;2.97;;;;;;;17.57;82.81;99366.84;3157559;28;20036;-69
2023/05/29 02:39:49;;;;;;;7.07;2.45;;;;;;;17.56;82.66;99367.81;3156886;28;20520;-68
2023/05/29 02:41:20;;;;;;;8.43;2.75;;;;;;;17.58;82.68;99369.38;3151475;28;20052;-68
2023/05/29 02:42:53;;;;;;;8.82;3.15;;;;;;;17.57;82.51;99367.69;3144597;28;20521;-69
2023/05/29 02:44:25;;;;;;;6.38;2.85;;;;;;;17.55;82.62;99368.78;3144762;28;20114;-68
2023/05/29 02:45:57;;;;;;;4.47;2.28;;;;;;;17.51;82.64;99362.94;3141585;28;20132;-69
2023/05/29 02:47:29;;;;;;;8.68;3.03;;;;;;;17.49;82.53;99365.69;3144765;28;20055;-68
2023/05/29 02:49:00;;;;;;;7.95;2.60;;;;;;;17.49;82.41;99362.22;3144464;28;20444;-69
2023/05/29 02:50:32;;;;;;;6.65;2.83;;;;;;;17.47;82.55;99357.06;3138813;28;20126;-68
2023/05/29 02:52:05;;;;;;;5.53;2.97;;;;;;;17.45;82.53;99363.41;3144690;28;20052;-68
2023/05/29 02:53:35;;;;;;;5.88;3.47;;;;;;;17.39;82.59;99363.91;3145519;28;20113;-68
2023/05/29 02:55:08;;;;;;;5.40;3.30;;;;;;;17.37;82.56;99361.41;3149211;28;20135;-68
2023/05/29 02:56:40;;;;;;;7.63;3.30;;;;;;;17.33;82.88;99362.59;3159077;28;20059;-69
2023/05/29 02:58:12;;;;;;;8.73;3.20;;;;;;;17.32;82.94;99366.19;3159832;28;20313;-68
2023/05/29 02:59:45;;;;;;;7.50;3.05;;;;;;;17.32;83.41;99366.19;3149381;28;20494;-69
2023/05/29 03:01:17;;;;;;;;;;;;;;;17.09;83.60;99375.91;3138564;28;20524;-68
2023/05/29 03:02:49;;;;;;;7.47;2.97;;;;;;;17.14;83.97;99376.38;3143436;28;19921;-68
2023/05/29 03:04:19;;;;;;;11.32;3.28;;;;;;;17.19;83.83;99371.59;3146806;28;20458;-68
2023/05/29 03:05:51;;;;;;;8.80;3.17;;;;;;;17.21;83.95;99374.94;3150338;28;20048;-68
2023/05/29 03:07:22;;;;;;;6.80;3.38;;;;;;;17.22;83.68;99381.88;3147221;28;20044;-69
2023/05/29 03:08:54;;;;;;;5.82;3.05;;;;;;;17.19;83.99;99374.25;3152616;28;20546;-69
2023/05/29 03:10:26;;;;;;;4.57;2.90;;;;;;;17.19;83.85;99374.25;3154258;28;20049;-69
2023/05/29 03:11:57;;;;;;;7.07;3.28;;;;;;;17.21;84.04;99372.28;3146818;28;20481;-68
2023/05/29 03:13:29;;;;;;;5.40;3.20;;;;;;;17.24;83.91;99379.97;3147131;28;20075;-68
2023/05/29 03:15:03;;;;;;;6.22;3.28;;;;;;;17.28;84.08;99378.75;3149916;28;20062;-68
2023/05/29 03:16:33;;;;;;;;;;;;;;;17.11;84.12;99383.69;3139092;28;20049;-68
2023/05/29 03:18:05;;;;;;;9.30;3.03;;;;;;;17.15;84.49;99385.94;3147983;28;20011;-68
2023/05/29 03:19:38;;;;;;;8.23;3.53;;;;;;;17.19;84.27;99376.88;3154762;28;20102;-68
2023/05/29 03:21:10;;;;;;;6.10;3.75;;;;;;;17.19;84.28;99390.03;3146914;28;20144;-68
2023/05/29 03:22:41;;;;;;;8.65;3.90;;;;;;;17.20;84.20;99377.69;3134301;28;20415;-69
2023/05/29 03:24:14;;;;;;;7.68;3.28;;;;;;;17.20;84.01;99390.84;3158410;28;20203;-69
2023/05/29 03:25:46;;;;;;;6.80;2.95;;;;;;;17.17;84.28;99388.47;3148215;28;20040;-69
2023/05/29 03:27:18;;;;;;;5.70;3.40;;;;;;;17.17;84.18;99386.66;3157453;28;20099;-68
2023/05/29 03:28:49;;;;;;;8.38;3.50;;;;;;;17.14;84.21;99383.44;3148910;28;20057;-68
2023/05/29 03:30:22;;;;;;;7.80;3.47;;;;;;;17.17;84.28;99391.94;3153544;28;20106;-68
2023/05/29 03:31:53;;;;;;;5.97;3.58;;;;;;;17.17;84.70;99386.66;3142746;28;20109;-68
2023/05/29 03:33:25;;;;;;;12.40;3.88;;;;;;;17.17;84.33;99391.09;3154521;28;20445;-68
2023/05/29 03:34:57;;;;;;;7.25;3.50;;;;;;;17.16;84.46;99386.81;3154992;28;20132;-68
2023/05/29 03:36:29;;;;;;;8.02;3.63;;;;;;;17.14;84.47;99389.53;3152785;28;20056;-69
2023/05/29 03:38:01;;;;;;;10.13;4.07;;;;;;;17.13;84.67;99393.16;3146410;28;20090;-68
2023/05/29 03:39:33;;;;;;;8.20;3.53;;;;;;;17.14;84.73;99393.97;3146543;28;20380;-67
2023/05/29 03:41:05;;;;;;;8.63;4.10;;;;;;;17.13;84.90;99392.31;3145973;28;20829;-68
2023/05/29 03:42:36;;;;;;;7.45;3.95;;;;;;;17.13;84.94;99394.94;3150365;28;20043;-68
2023/05/29 03:44:08;;;;;;;14.88;4.70;;;;;;;17.15;85.23;99395.63;3148159;28;20710;-68
2023/05/29 03:45:41;;;;;;;12.25;3.45;;;;;;;17.17;85.04;99397.19;3144580;28;20526;-68
2023/05/29 03:47:13;;;;;;;10.20;4.22;;;;;;;17.17;85.08;99401.63;3146558;28;20441;-68
2023/05/29 03:48:45;;;;;;;7.95;4.28;;;;;;;17.19;85.26;99399.72;3146368;28;20136;-68
2023/05/29 03:50:17;;;;;;;10.52;4.78;;;;;;;17.20;85.17;99404.84;3137440;28;20049;-68
2023/05/29 03:51:49;;;;;;;8.48;4.25;;;;;;;17.20;85.26;99393.50;3146091;28;20049;-67
2023/05/29 03:53:20;;;;;;;10.25;3.97;;;;;;;17.20;85.47;99390.84;3146362;28;20056;-67
2023/05/29 03:54:52;;;;;;;9.35;4.50;;;;;;;17.19;85.60;99392.66;3148812;28;20133;-67
2023/05/29 03:56:24;;;;;;;10.90;4.47;;;;;;;17.21;85.71;99401.25;3146135;28;20101;-67
2023/05/29 03:57:56;;;;;;;10.85;4.10;;;;;;;17.20;85.57;99399.59;3146411;28;20299;-68
2023/05/29 03:59:28;;;;;;;13.13;4.30;;;;;;;17.21;85.87;99395.16;3154062;28;20071;-66
2023/05/29 04:01:01;;;;;;;7.57;4.25;;;;;;;17.24;85.86;99402.81;3138822;28;20049;-70
2023/05/29 04:02:33;;;;;;;13.48;8.60;;;;;;;17.22;85.92;99402.09;3139744;28;20056;-70
2023/05/29 04:04:05;;;;;;;11.30;5.75;;;;;;;17.26;85.75;99403.53;3151582;28;20377;-70
2023/05/29 04:05:37;;;;;;;8.45;5.00;;;;;;;17.32;85.79;99404.84;3159366;28;20048;-70
2023/05/29 04:07:07;;;;;;;8.90;4.57;;;;;;;17.34;85.86;99409.03;3157810;28;20661;-67
2023/05/29 04:08:39;;;;;;;9.32;4.28;;;;;;;17.36;85.47;99404.47;3158522;28;20055;-67
2023/05/29 04:10:11;;;;;;;12.43;5.28;;;;;;;17.38;85.49;99402.53;3158928;28;20523;-68
2023/05/29 04:11:44;;;;;;;10.80;4.55;;;;;;;17.39;85.34;99409.50;3156388;28;20097;-67
2023/05/29 04:13:16;;;;;;;8.20;5.03;;;;;;;17.40;85.13;99408.53;3148088;28;20048;-72
2023/05/29 04:14:48;;;;;;;9.85;4.03;;;;;;;17.42;84.61;99405.75;3158023;28;20109;-70
2023/05/29 04:16:21;;;;;;;9.43;3.80;;;;;;;17.46;84.85;99405.41;3140575;28;20719;-71
2023/05/29 04:17:53;;;;;;;7.45;4.43;;;;;;;17.45;84.81;99414.28;3151620;28;20048;-69
2023/05/29 04:19:24;;;;;;;10.85;3.85;;;;;;;17.44;84.60;99412.59;3146470;28;20699;-72
2023/05/29 04:20:56;;;;;;;11.25;4.30;;;;;;;17.42;84.61;99413.66;3145538;28;20143;-71
2023/05/29 04:22:28;;;;;;;7.90;4.00;;;;;;;17.41;84.62;99409.38;3145713;28;20052;-72
2023/05/29 04:24:01;;;;;;;8.75;3.90;;;;;;;17.39;84.46;99416.53;3144696;28;20457;-69
2023/05/29 04:25:34;;;;;;;8.52;4.38;;;;;;;17.41;84.46;99422.53;3158364;28;20048;-71
2023/05/29 04:27:06;;;;;;;16.40;5.03;;;;;;;17.35;84.35;99413.31;3158572;28;20481;-68
2023/05/29 04:28:38;;;;;;;35.10;20.05;;;;;;;17.47;84.44;99414.13;3158536;28;20055;-67
2023/05/29 04:30:11;;;;;;;27.13;15.80;;;;;;;17.50;84.22;99425.25;3149230;28;20598;-63
2023/05/29 04:31:44;;;;;;;10.13;4.90;;;;;;;17.56;83.79;99423.09;3145649;28;20064;-65
2023/05/29 04:33:16;;;;;;;15.30;8.15;;;;;;;17.57;83.84;99424.75;3150315;28;20088;-65
2023/05/29 04:34:48;;;;;;;15.75;8.43;;;;;;;17.61;83.54;99426.22;3145989;28;20053;-67
2023/05/29 04:36:19;;;;;;;11.10;4.47;;;;;;;17.62;83.51;99430.50;3155413;28;20512;-68
2023/05/29 04:37:53;;;;;;;10.15;4.68;;;;;;;17.66;83.00;99430.16;3148772;28;20151;-64
2023/05/29 04:39:25;;;;;;;37.83;20.77;;;;;;;17.71;83.32;99433.22;3154032;28;20052;-64
2023/05/29 04:40:58;;;;;;;11.55;5.63;;;;;;;17.76;83.17;99438.13;3158341;28;20059;-63
2023/05/29 04:42:33;;;;;;;;;;;;;;;17.62;83.39;99441.03;3152990;28;20570;-65
2023/05/29 04:44:05;;;;;;;21.92;11.15;;;;;;;17.69;83.52;99435.16;3145899;28;19924;-69
2023/05/29 04:45:37;;;;;;;12.40;4.00;;;;;;;17.80;82.91;99442.22;3145365;28;20103;-67
2023/05/29 04:47:12;;;;;;;16.95;4.70;;;;;;;17.82;82.57;99442.94;3138615;28;20049;-67
2023/05/29 04:48:44;;;;;;;9.07;4.00;;;;;;;17.82;82.30;99442.09;3140346;28;20536;-69
2023/05/29 04:50:17;;;;;;;14.60;3.80;;;;;;;17.81;82.20;99441.28;3135150;28;20810;-70
2023/05/29 04:51:52;;;;;;;15.00;3.70;;;;;;;17.80;82.15;99436.94;3145653;28;20048;-69
2023/05/29 04:53:24;;;;;;;10.38;4.30;;;;;;;17.79;82.17;99445.81;3145635;28;20054;-71
2023/05/29 04:54:57;;;;;;;7.70;4.28;;;;;;;17.81;82.05;99446.53;3146436;28;20076;-68
2023/05/29 04:56:29;;;;;;;8.35;4.03;;;;;;;17.81;82.04;99443.91;3155600;28;20074;-65
2023/05/29 04:58:00;;;;;;;11.30;5.82;;;;;;;17.82;81.90;99440.31;3155763;28;20060;-63
2023/05/29 04:59:32;;;;;;;12.00;5.65;;;;;;;17.87;81.99;99450.47;3153069;28;20127;-64
2023/05/29 05:01:05;;;;;;;17.77;10.40;;;;;;;17.89;81.47;99452.00;3150158;28;20472;-65
2023/05/29 05:02:37;;;;;;;10.80;4.00;;;;;;;17.90;81.64;99458.97;3145088;28;20131;-64
2023/05/29 05:04:09;;;;;;;10.40;4.40;;;;;;;17.89;81.50;99456.44;3145575;28;20306;-63
2023/05/29 05:05:43;;;;;;;11.00;5.00;;;;;;;17.89;81.55;99456.44;3138140;28;20327;-63
2023/05/29 05:07:15;;;;;;;9.07;4.00;;;;;;;17.85;81.28;99450.59;3140616;28;20059;-63
2023/05/29 05:08:46;;;;;;;10.32;4.57;;;;;;;17.90;81.34;99458.13;3137512;28;20070;-63
2023/05/29 05:10:18;;;;;;;6.97;3.95;;;;;;;17.92;81.23;99459.69;3157037;28;20106;-66
2023/05/29 05:11:50;;;;;;;10.15;4.18;;;;;;;17.93;81.14;99456.09;3145472;28;20092;-67
2023/05/29 05:13:22;;;;;;;10.07;3.72;;;;;;;17.96;80.96;99453.19;3158000;28;20113;-71
2023/05/29 05:14:54;;;;;;;13.25;3.95;;;;;;;17.96;80.90;99458.47;3145361;28;20063;-69
2023/05/29 05:16:26;;;;;;;10.35;4.70;;;;;;;17.97;80.60;99456.66;3136028;28;20518;-70
2023/05/29 05:17:59;;;;;;;7.07;3.55;;;;;;;17.99;80.04;99457.38;3143350;28;20075;-68
2023/05/29 05:19:31;;;;;;;;;;;;;;;17.80;80.65;99455.38;3145525;28;20079;-68
2023/05/29 05:21:04;;;;;;;9.32;3.60;;;;;;;17.85;80.73;99461.13;3144853;28;19920;-70
2023/05/29 05:22:36;;;;;;;12.75;4.05;;;;;;;17.89;80.20;99456.44;3154188;28;20083;-67
2023/05/29 05:24:08;;;;;;;11.75;4.03;;;;;;;17.92;79.84;99462.31;3157459;28;20509;-68
2023/05/29 05:26:06;;;;;;;6.32;4.05;;;;;;;17.91;79.23;99452.72;3145210;28;20266;-67
2023/05/29 05:27:38;;;;;;;6.50;3.50;;;;;;;17.92;79.78;99462.31;3145833;28;20536;-69
2023/05/29 05:29:10;;;;;;;9.10;4.00;;;;;;;17.93;79.41;99463.97;3152029;28;20087;-71
2023/05/29 05:30:42;;;;;;;7.53;3.95;;;;;;;17.96;79.24;99463.72;3138837;28;20052;-70
2023/05/29 05:32:14;;;;;;;12.68;4.25;;;;;;;18.03;79.22;99476.41;3143233;28;20056;-71
2023/05/29 05:33:47;;;;;;;7.95;3.75;;;;;;;18.04;78.92;99470.16;3144536;28;20106;-66
2023/05/29 05:35:19;;;;;;;14.00;4.13;;;;;;;18.05;79.05;99470.06;3136681;28;20186;-67
2023/05/29 05:36:51;;;;;;;10.05;3.78;;;;;;;18.05;79.04;99466.59;3156117;28;20064;-67
2023/05/29 05:38:23;;;;;;;14.00;4.10;;;;;;;18.00;78.77;99463.47;3147109;28;20105;-68
2023/05/29 05:39:57;;;;;;;9.45;3.63;;;;;;;18.03;78.94;99474.59;3154721;28;20109;-69
2023/05/29 05:41:29;;;;;;;7.97;4.15;;;;;;;18.03;78.83;99479.03;3144767;28;20470;-69
2023/05/29 05:43:01;;;;;;;15.25;4.03;;;;;;;18.03;79.11;99484.31;3144521;28;20056;-66
2023/05/29 05:44:32;;;;;;;12.00;4.15;;;;;;;18.01;78.94;99478.31;3150806;28;20048;-67
2023/05/29 05:46:05;;;;;;;8.82;3.92;;;;;;;17.95;78.98;99483.16;3142644;28;20051;-67
2023/05/29 05:47:36;;;;;;;10.52;4.60;;;;;;;18.01;78.91;99486.22;3143956;28;20041;-65
2023/05/29 05:49:09;;;;;;;6.72;3.60;;;;;;;18.05;78.77;99485.03;3139453;28;20131;-65
2023/05/29 05:50:41;;;;;;;7.18;3.75;;;;;;;18.06;78.81;99490.16;3155213;28;20066;-63
2023/05/29 05:52:13;;;;;;;5.78;3.83;;;;;;;18.11;78.79;99489.81;3157167;28;20048;-65
2023/05/29 05:53:46;;;;;;;8.95;4.18;;;;;;;18.12;78.56;99491.47;3157491;28;20052;-65
2023/05/29 05:55:18;;;;;;;8.75;4.18;;;;;;;18.11;78.79;99487.16;3142812;28;20686;-63
2023/05/29 05:56:50;;;;;;;10.00;3.97;;;;;;;18.11;78.79;99481.91;3132711;28;20585;-68
2023/05/29 05:58:21;;;;;;;11.70;3.78;;;;;;;18.14;78.79;99484.28;3144543;28;20057;-65
2023/05/29 05:59:53;;;;;;;10.48;4.22;;;;;;;18.22;78.52;99483.63;3144851;28;20437;-69
2023/05/29 06:01:24;;;;;;;10.15;4.03;;;;;;;18.27;78.35;99494.66;3138834;28;20528;-71
2023/05/29 06:02:57;;;;;;;12.13;4.05;;;;;;;18.31;78.37;99488.16;3136667;28;20139;-69
2023/05/29 06:04:31;;;;;;;16.10;5.27;;;;;;;18.24;78.15;99464.09;3137828;28;20075;-70
2023/05/29 06:06:03;;;;;;;13.73;4.50;;;;;;;18.39;78.44;99481.28;3132156;28;20311;-69
2023/05/29 06:07:35;;;;;;;10.63;5.38;;;;;;;18.46;78.29;99473.72;3135890;28;20052;-70
2023/05/29 06:09:07;;;;;;;12.45;4.75;;;;;;;18.50;78.00;99482.22;3146784;28;20151;-68
2023/05/29 06:10:39;;;;;;;11.05;4.88;;;;;;;18.53;77.64;99476.69;3151965;28;20154;-68
2023/05/29 06:12:12;;;;;;;15.48;4.20;;;;;;;18.55;77.66;99480.88;3146725;28;20052;-68
2023/05/29 06:13:44;;;;;;;9.05;4.13;;;;;;;18.59;77.54;99477.00;3133466;28;20313;-66
2023/05/29 06:15:16;;;;;;;9.20;4.68;;;;;;;18.66;77.55;99482.59;3139147;28;20110;-68
2023/05/29 06:16:50;;;;;;;9.00;3.70;;;;;;;18.71;77.22;99476.94;3131484;28;20044;-68
2023/05/29 06:18:23;;;;;;;8.88;4.13;;;;;;;18.77;77.04;99481.72;3142755;28;20138;-68
2023/05/29 06:19:56;;;;;;;7.20;3.55;;;;;;;18.82;76.90;99476.91;3145285;28;20052;-69
2023/05/29 06:21:28;;;;;;;;;;;;;;;18.69;77.21;99482.31;3133377;28;20536;-68
2023/05/29 06:23:00;;;;;;;11.55;3.92;;;;;;;18.80;76.93;99479.66;3140810;28;19924;-68
2023/05/29 06:24:32;;;;;;;10.27;3.85;;;;;;;18.91;76.55;99480.56;3152307;28;20052;-68
2023/05/29 06:26:04;;;;;;;9.63;3.70;;;;;;;18.99;76.04;99473.69;3151646;28;20577;-68
2023/05/29 06:27:37;;;;;;;7.20;4.15;;;;;;;19.09;76.05;99481.63;3148080;28;20143;-67
2023/05/29 06:29:09;;;;;;;11.73;4.37;;;;;;;19.13;75.30;99480.38;3134693;28;20064;-68
2023/05/29 06:30:41;;;;;;;7.10;3.60;;;;;;;19.19;74.97;99489.59;3137545;28;20386;-67
2023/05/29 06:32:13;;;;;;;8.98;4.43;;;;;;;19.24;74.91;99477.66;3139265;28;20615;-68
2023/05/29 06:33:45;;;;;;;10.27;4.30;;;;;;;19.26;74.90;99482.84;3139696;28;20125;-68
2023/05/29 06:35:19;;;;;;;10.80;4.22;;;;;;;19.29;74.58;99480.75;3139281;28;20106;-67
2023/05/29 06:36:51;;;;;;;8.82;4.13;;;;;;;19.28;74.37;99487.00;3135328;28;20064;-67
2023/05/29 06:38:23;;;;;;;10.77;4.47;;;;;;;19.28;74.26;99481.72;3138002;28;20048;-69
2023/05/29 06:39:55;;;;;;;11.30;4.65;;;;;;;19.30;74.75;99481.59;3142261;28;20052;-69
2023/05/29 06:41:27;;;;;;;12.07;4.97;;;;;;;19.35;74.62;99481.19;3137321;28;20052;-67
2023/05/29 06:43:00;;;;;;;12.43;4.60;;;;;;;19.41;74.74;99488.59;3136067;28;20075;-68
2023/05/29 06:44:32;;;;;;;12.48;4.63;;;;;;;19.46;74.65;99494.28;3135326;28;20091;-68
2023/05/29 06:46:04;;;;;;;14.35;4.43;;;;;;;19.50;74.42;99493.91;3132102;28;20090;-66
2023/05/29 06:47:36;;;;;;;11.15;4.53;;;;;;;19.47;74.29;99494.16;3146309;28;20480;-68
2023/05/29 06:49:08;;;;;;;10.73;3.67;;;;;;;19.50;74.19;99487.78;3145638;28;20170;-71
2023/05/29 06:50:42;;;;;;;9.00;3.92;;;;;;;19.55;74.07;99499.63;3137512;28;20050;-68
2023/05/29 06:52:13;;;;;;;;;;;;;;;19.39;74.41;99486.06;3149516;28;20059;-71
2023/05/29 06:53:45;;;;;;;12.00;4.15;;;;;;;19.49;74.04;99497.53;3144718;28;20358;-70
2023/05/29 06:55:18;;;;;;;6.97;3.67;;;;;;;19.58;73.53;99492.38;3135349;28;20215;-69
2023/05/29 06:56:50;;;;;;;9.82;3.90;;;;;;;19.63;73.46;99491.00;3149491;28;20498;-69
2023/05/29 06:58:22;;;;;;;8.77;4.30;;;;;;;19.68;73.38;99495.94;3128725;28;20056;-71
2023/05/29 06:59:55;;;;;;;9.20;4.03;;;;;;;19.74;73.16;99493.59;3140054;28;20311;-70
2023/05/29 07:01:27;;;;;;;15.43;4.15;;;;;;;19.78;72.84;99496.78;3136426;28;20541;-71
2023/05/29 07:02:58;;;;;;;9.85;4.47;;;;;;;19.84;72.70;99492.75;3135232;28;20053;-70
2023/05/29 07:04:31;;;;;;;11.07;4.18;;;;;;;19.93;72.55;99495.41;3136867;28;20550;-70
2023/05/29 07:06:05;;;;;;;8.80;4.18;;;;;;;20.03;72.25;99486.69;3150591;28;20109;-71
2023/05/29 07:07:37;;;;;;;8.13;4.35;;;;;;;20.08;72.27;99487.91;3142162;28;20533;-71
2023/05/29 07:09:09;;;;;;;8.75;4.63;;;;;;;20.15;71.86;99491.69;3139432;28;20052;-71
2023/05/29 07:10:41;;;;;;;12.77;3.88;;;;;;;20.20;71.29;99489.50;3147173;28;20094;-70
2023/05/29 07:12:13;;;;;;;8.25;4.00;;;;;;;20.26;71.02;99489.88;3137471;28;20044;-71
2023/05/29 07:13:45;;;;;;;11.93;3.72;;;;;;;20.34;70.59;99487.38;3130890;28;20058;-71
2023/05/29 07:15:17;;;;;;;9.05;4.07;;;;;;;20.41;70.83;99492.00;3132419;28;20057;-70